Time;durP1;ratioP1;P1;durP2;ratioP2;P2;SDS_P1;SDS_P2;PMS_P1;PMS_P2;Temp;Humidity;BMP_temperature;BMP_pressure;BME280_temperature;BME280_humidity;BME280_pressure;Samples;Min_cycle;Max_cycle;Signal;HPM_P1;HPM_P2
2022/12/03 00:36:02;;;;;;;;;;;;;;;1.60;75.69;103245.34;6063582;23;19920;31
2022/12/03 00:38:28;;;;;;;;;;;;;;;1.59;75.89;103234.81;4994114;28;19926;-65
2022/12/03 00:40:53;;;;;;;;;;;;;;;1.59;75.83;103234.81;4995907;28;20357;-65
2022/12/03 00:43:18;;;;;;;;;;;;;;;1.58;76.13;103241.00;4995939;28;19914;-65
2022/12/03 00:45:43;;;;;;;;;;;;;;;1.60;76.63;103242.69;4995762;28;19930;-66
2022/12/03 00:48:09;;;;;;;;;;;;;;;1.65;76.44;103242.47;4996304;28;19918;-65
2022/12/03 00:50:34;;;;;;;;;;;;;;;1.67;76.78;103244.16;4998426;28;20001;-66
2022/12/03 00:52:59;;;;;;;;;;;;;;;1.70;76.06;103241.34;4996288;28;20330;-65
2022/12/03 00:55:25;;;;;;;;;;;;;;;1.70;75.69;103243.16;4995756;28;20261;-66
2022/12/03 00:57:50;;;;;;;;;;;;;;;1.71;76.27;103229.84;4993858;28;19914;-67
2022/12/03 01:00:16;;;;;;;;;;;;;;;1.70;75.23;103232.53;4992778;28;19913;-66
2022/12/03 01:02:41;;;;;;;;;;;;;;;1.69;75.51;103228.16;4992716;28;19948;-66
2022/12/03 01:05:07;;;;;;;;;;;;;;;1.70;75.06;103227.25;4993533;28;20366;-66
2022/12/03 01:07:32;;;;;;;;;;;;;;;1.66;76.21;103229.16;4996651;28;19924;-67
2022/12/03 01:09:57;;;;;;;;;;;;;;;1.68;75.63;103224.66;4998177;28;19920;-66
2022/12/03 01:12:23;;;;;;;;;;;;;;;1.69;75.69;103218.44;5014901;28;19914;-66
2022/12/03 01:14:48;;;;;;;;;;;;;;;1.69;75.87;103223.75;4996623;28;19972;-69
2022/12/03 01:17:13;;;;;;;;;;;;;;;1.71;75.41;103221.03;4997475;28;19960;-68
2022/12/03 01:19:39;;;;;;;;;;;;;;;1.71;75.63;103223.69;4997988;28;19913;-68
2022/12/03 01:22:05;;;;;;;;;;;;;;;1.77;76.22;103226.06;4997080;28;19918;-69
2022/12/03 01:24:30;;;;;;;;;;;;;;;1.78;75.71;103224.25;4996092;28;20373;-69
2022/12/03 01:26:56;;;;;;;;;;;;;;;1.82;75.84;103220.53;5014327;28;19921;-69
2022/12/03 01:29:21;;;;;;;;;;;;;;;1.85;76.06;103215.09;5000481;28;19917;-67
2022/12/03 01:34:31;;;;;;;;;;;;;;;1.80;74.58;103215.34;4997356;28;19921;-68
2022/12/03 01:36:58;;;;;;;;;;;;;;;1.82;74.74;103223.19;4997308;28;19922;-66
2022/12/03 01:39:23;;;;;;;;;;;;;;;1.79;74.19;103213.59;4996926;28;19914;-67
2022/12/03 01:41:50;;;;;;;;;;;;;;;1.80;74.48;103217.09;4997742;28;20008;-66
2022/12/03 01:44:22;;;;;;;;;;;;;;;1.82;74.32;103223.19;4998269;28;19918;-67
2022/12/03 01:46:48;;;;;;;;;;;;;;;1.87;75.60;103216.75;4998720;28;19920;-66
2022/12/03 01:49:31;;;;;;;;;;;;;;;1.88;74.53;103215.84;4999066;28;19914;-66
2022/12/03 01:51:57;;;;;;;;;;;;;;;1.87;73.57;103215.91;4999462;28;19977;-68
2022/12/03 01:54:27;;;;;;;;;;;;;;;1.83;73.50;103217.81;4998163;28;20325;-68
2022/12/03 01:56:53;;;;;;;;;;;;;;;1.83;73.28;103203.72;4999496;28;20284;-66
2022/12/03 01:59:20;;;;;;;;;;;;;;;1.80;72.63;103202.09;4999538;28;19920;-67
2022/12/03 02:01:46;;;;;;;;;;;;;;;1.79;73.06;103210.09;4998666;28;20436;-67
2022/12/03 02:04:13;;;;;;;;;;;;;;;1.78;73.66;103217.16;4982026;28;19918;-67
2022/12/03 02:06:38;;;;;;;;;;;;;;;1.81;73.90;103216.19;4999197;28;20004;-67
2022/12/03 02:09:07;;;;;;;;;;;;;;;1.82;74.66;103213.47;4999404;28;19953;-67
2022/12/03 02:11:34;;;;;;;;;;;;;;;1.81;73.92;103218.84;5000342;28;19921;-67
2022/12/03 02:14:02;;;;;;;;;;;;;;;1.79;73.46;103212.75;4997951;28;20342;-67
2022/12/03 02:16:28;;;;;;;;;;;;;;;1.82;74.40;103209.94;4996519;28;19921;-67
2022/12/03 02:18:53;;;;;;;;;;;;;;;1.76;73.71;103219.03;4996166;28;19921;-67
2022/12/03 02:21:23;;;;;;;;;;;;;;;1.76;73.82;103220.81;4996835;28;19977;-67
2022/12/03 02:24:01;;;;;;;;;;;;;;;1.76;73.75;103223.47;4996850;28;19921;-67
2022/12/03 02:26:26;;;;;;;;;;;;;;;1.71;73.28;103216.59;4996098;28;19963;-66
2022/12/03 02:28:51;;;;;;;;;;;;;;;1.66;73.43;103210.63;4996225;28;20000;-66
2022/12/03 02:31:17;;;;;;;;;;;;;;;1.66;73.98;103221.22;4996192;28;19913;-66
2022/12/03 02:33:42;;;;;;;;;;;;;;;1.67;73.23;103208.81;4996494;28;19972;-66
2022/12/03 02:36:07;;;;;;;;;;;;;;;1.67;73.42;103211.47;4996180;28;20337;-67
2022/12/03 02:38:34;;;;;;;;;;;;;;;1.66;74.08;103210.63;4996464;28;19914;-66
2022/12/03 02:41:03;;;;;;;;;;;;;;;1.67;73.55;103217.66;4996550;28;19913;-67
2022/12/03 02:43:28;;;;;;;;;;;;;;;1.68;73.19;103215.88;4996025;28;19914;-66
2022/12/03 02:45:55;;;;;;;;;;;;;;;1.68;73.29;103219.38;4995825;28;20380;-66
2022/12/03 02:48:40;;;;;;;;;;;;;;;1.68;72.81;103213.22;4995926;28;20397;-67
2022/12/03 02:51:07;;;;;;;;;;;;;;;1.68;73.08;103219.38;4994391;28;19984;-67
2022/12/03 02:53:41;;;;;;;;;;;;;;;1.69;73.34;103212.28;4996029;28;20358;-67
2022/12/03 02:56:07;;;;;;;;;;;;;;;1.68;73.80;103211.41;4995849;28;20007;-66
2022/12/03 02:58:32;;;;;;;;;;;;;;;1.69;73.21;103215.81;4995808;28;20292;-67
2022/12/03 03:01:00;;;;;;;;;;;;;;;1.71;73.88;103218.38;4995871;28;19918;-66
2022/12/03 03:03:27;;;;;;;;;;;;;;;1.71;73.18;103219.25;4996006;28;19914;-67
2022/12/03 03:05:53;;;;;;;;;;;;;;;1.71;73.62;103213.09;4995658;28;19921;-66
2022/12/03 03:08:18;;;;;;;;;;;;;;;1.71;73.22;103203.34;4995482;28;19936;-66
2022/12/03 03:10:45;;;;;;;;;;;;;;;1.73;72.75;103213.88;4995570;28;19963;-66
2022/12/03 03:13:14;;;;;;;;;;;;;;;1.75;72.36;103198.78;4995452;28;19914;-66
2022/12/03 03:15:40;;;;;;;;;;;;;;;1.80;73.52;103204.72;4995121;28;19914;-66
2022/12/03 03:18:06;;;;;;;;;;;;;;;1.82;73.22;103199.34;4994276;28;20015;-66
2022/12/03 03:20:32;;;;;;;;;;;;;;;1.85;74.09;103205.38;4995479;28;19996;-67
2022/12/03 03:23:04;;;;;;;;;;;;;;;1.85;72.97;103204.50;4994847;28;19921;-66
2022/12/03 03:25:29;;;;;;;;;;;;;;;1.84;71.88;103202.78;4995011;28;19957;-67
2022/12/03 03:27:55;;;;;;;;;;;;;;;1.83;71.51;103206.38;4995458;28;19914;-66
2022/12/03 03:30:20;;;;;;;;;;;;;;;1.85;72.17;103201.88;4994322;28;19918;-66
2022/12/03 03:32:46;;;;;;;;;;;;;;;1.84;71.84;103201.00;4994996;28;20127;-66
2022/12/03 03:35:12;;;;;;;;;;;;;;;1.87;72.94;103186.75;4994764;28;19914;-66
2022/12/03 03:37:38;;;;;;;;;;;;;;;1.89;73.72;103201.63;4994603;28;19922;-66
2022/12/03 03:40:04;;;;;;;;;;;;;;;1.87;72.29;103182.31;4995244;28;19960;-66
2022/12/03 03:42:29;;;;;;;;;;;;;;;1.90;72.32;103187.47;4995132;28;19913;-66
2022/12/03 03:44:54;;;;;;;;;;;;;;;1.96;72.94;103188.13;4995037;28;19918;-66
2022/12/03 03:47:19;;;;;;;;;;;;;;;1.96;72.66;103188.97;4994633;28;19924;-67
2022/12/03 03:49:46;;;;;;;;;;;;;;;1.98;72.63;103186.28;4994344;28;19914;-66
2022/12/03 03:52:12;;;;;;;;;;;;;;;1.97;72.49;103180.13;4995195;28;19921;-66
2022/12/03 03:54:38;;;;;;;;;;;;;;;1.99;72.02;103188.84;4994949;28;19929;-66
2022/12/03 03:57:03;;;;;;;;;;;;;;;1.98;72.28;103188.91;4994678;28;20011;-66
2022/12/03 03:59:28;;;;;;;;;;;;;;;1.98;72.71;103183.63;4993614;28;19949;-66
2022/12/03 04:01:54;;;;;;;;;;;;;;;1.98;72.67;103184.47;4994893;28;19914;-66
2022/12/03 04:04:22;;;;;;;;;;;;;;;1.99;72.54;103183.56;4994744;28;20318;-66
2022/12/03 04:06:48;;;;;;;;;;;;;;;1.99;72.60;103180.91;4994598;28;19961;-66
2022/12/03 04:09:13;;;;;;;;;;;;;;;1.97;72.67;103182.78;4993104;28;19917;-66
2022/12/03 04:14:23;;;;;;;;;;;;;;;1.90;70.81;103176.03;4994432;28;19918;-67
2022/12/03 04:16:48;;;;;;;;;;;;;;;1.86;72.95;103163.84;4994179;28;19968;-66
2022/12/03 04:19:13;;;;;;;;;;;;;;;1.84;71.46;103166.56;4994463;28;19941;-66
2022/12/03 04:24:22;;;;;;;;;;;;;;;1.62;73.47;103134.03;4994472;28;19925;-67
2022/12/03 04:29:32;;;;;;;;;;;;;;;1.91;73.05;103181.25;4994329;28;19918;-67
2022/12/03 04:37:25;;;;;;;;;;;;;;;1.91;72.83;103180.38;4994272;28;19922;-67
2022/12/03 04:39:50;;;;;;;;;;;;;;;1.89;73.86;103180.44;4994652;28;19914;-67
2022/12/03 04:42:15;;;;;;;;;;;;;;;1.87;71.60;103174.34;4997158;28;19920;-67
2022/12/03 04:44:41;;;;;;;;;;;;;;;1.84;72.41;103174.50;4997134;28;20004;-67
2022/12/03 04:47:13;;;;;;;;;;;;;;;1.84;72.95;103173.63;4998187;28;20389;-67
2022/12/03 04:49:40;;;;;;;;;;;;;;;1.81;71.32;103181.75;4998023;28;19952;-67
2022/12/03 04:52:06;;;;;;;;;;;;;;;1.76;71.45;103186.38;4998058;28;19914;-67
2022/12/03 04:54:31;;;;;;;;;;;;;;;1.75;72.00;103182.88;4997727;28;19914;-67
2022/12/03 04:56:56;;;;;;;;;;;;;;;1.77;71.35;103182.81;4997711;28;19914;-67
2022/12/03 04:59:22;;;;;;;;;;;;;;;1.76;71.84;103179.28;4998330;28;20000;-67
2022/12/03 05:01:47;;;;;;;;;;;;;;;1.71;71.53;103178.66;4997843;28;19949;-67
2022/12/03 05:04:13;;;;;;;;;;;;;;;1.73;72.57;103176.78;4997448;28;19922;-67
2022/12/03 05:06:39;;;;;;;;;;;;;;;1.68;71.65;103174.34;4997947;28;20255;-66
2022/12/03 05:09:05;;;;;;;;;;;;;;;1.66;69.75;103176.19;4997671;28;20384;-67
2022/12/03 05:11:30;;;;;;;;;;;;;;;1.58;68.74;103167.75;4997680;28;19914;-67
2022/12/03 05:13:55;;;;;;;;;;;;;;;1.60;71.00;103170.28;4997811;28;19913;-67
2022/12/03 05:16:21;;;;;;;;;;;;;;;1.59;71.24;103160.66;4997676;28;19960;-67
2022/12/03 05:18:46;;;;;;;;;;;;;;;1.59;69.71;103163.28;4996558;28;19945;-67
2022/12/03 05:21:12;;;;;;;;;;;;;;;1.59;70.58;103155.34;4997233;28;19940;-67
2022/12/03 05:23:37;;;;;;;;;;;;;;;1.62;70.57;103155.22;4997512;28;19921;-66
2022/12/03 05:26:02;;;;;;;;;;;;;;;1.61;70.19;103154.34;4997505;28;19960;-67
2022/12/03 05:28:27;;;;;;;;;;;;;;;1.61;70.20;103151.69;4996458;28;20000;-67
2022/12/03 05:30:53;;;;;;;;;;;;;;;1.60;69.00;103152.63;4997364;28;20278;-67
2022/12/03 05:33:19;;;;;;;;;;;;;;;1.59;69.60;103152.69;4997419;28;19913;-67
2022/12/03 05:35:44;;;;;;;;;;;;;;;1.60;69.49;103147.34;4997513;28;19937;-67
2022/12/03 05:38:10;;;;;;;;;;;;;;;1.61;69.65;103153.50;4995640;28;19921;-67
2022/12/03 05:40:35;;;;;;;;;;;;;;;1.62;69.17;103147.28;4997372;28;20277;-67
2022/12/03 05:43:00;;;;;;;;;;;;;;;1.66;70.34;103152.34;4997463;28;19914;-67
2022/12/03 05:45:28;;;;;;;;;;;;;;;1.68;69.38;103147.00;4997106;28;19955;-67
2022/12/03 05:47:54;;;;;;;;;;;;;;;1.65;67.58;103142.66;4996889;28;19917;-67
2022/12/03 05:50:20;;;;;;;;;;;;;;;1.67;69.88;103145.25;4996881;28;19913;-67
2022/12/03 05:52:45;;;;;;;;;;;;;;;1.64;68.25;103143.63;4995294;28;19918;-67
2022/12/03 05:55:11;;;;;;;;;;;;;;;1.63;67.11;103146.31;4997207;28;19968;-67
2022/12/03 05:57:36;;;;;;;;;;;;;;;1.63;67.67;103144.53;4997522;28;19920;-67
2022/12/03 06:00:02;;;;;;;;;;;;;;;1.63;67.11;103149.84;4997098;28;19996;-67
2022/12/03 06:02:28;;;;;;;;;;;;;;;1.60;68.81;103146.47;4997377;28;19983;-66
2022/12/03 06:04:53;;;;;;;;;;;;;;;1.64;69.35;103143.63;4995635;28;19918;-67
2022/12/03 06:07:18;;;;;;;;;;;;;;;1.68;67.78;103137.25;4997074;28;19914;-67
2022/12/03 06:09:44;;;;;;;;;;;;;;;1.68;69.22;103141.69;4997705;28;19914;-66
2022/12/03 06:12:09;;;;;;;;;;;;;;;1.61;68.13;103138.44;4998170;28;20388;-66
2022/12/03 06:14:34;;;;;;;;;;;;;;;1.58;67.97;103132.44;4997439;28;19952;-66
2022/12/03 06:17:00;;;;;;;;;;;;;;;1.62;69.94;103136.69;4997917;28;19945;-66
2022/12/03 06:19:25;;;;;;;;;;;;;;;1.67;71.53;103142.59;4997335;28;19913;-66
2022/12/03 06:21:50;;;;;;;;;;;;;;;1.66;68.97;103141.75;4998027;28;19914;-66
2022/12/03 06:24:15;;;;;;;;;;;;;;;1.66;68.00;103147.06;4998640;28;19921;-66
2022/12/03 06:26:41;;;;;;;;;;;;;;;1.65;70.68;103147.97;4997799;28;19920;-66
2022/12/03 06:29:06;;;;;;;;;;;;;;;1.61;68.62;103141.09;4996744;28;20000;-66
2022/12/03 06:31:31;;;;;;;;;;;;;;;1.59;67.77;103136.81;4996389;28;19914;-67
2022/12/03 06:33:56;;;;;;;;;;;;;;;1.61;66.88;103137.59;4996003;28;19914;-67
2022/12/03 06:36:22;;;;;;;;;;;;;;;1.60;67.78;103134.09;4996139;28;19940;-67
2022/12/03 06:38:47;;;;;;;;;;;;;;;1.59;67.53;103131.50;4996389;28;20432;-67
2022/12/03 06:41:12;;;;;;;;;;;;;;;1.51;65.43;103137.16;4996243;28;19983;-67
2022/12/03 06:43:37;;;;;;;;;;;;;;;1.50;67.23;103143.38;4995925;28;19914;-67
2022/12/03 06:46:03;;;;;;;;;;;;;;;1.47;66.07;103143.53;4996324;28;19953;-67
2022/12/03 06:48:28;;;;;;;;;;;;;;;1.49;67.59;103144.31;4994518;28;19921;-67
2022/12/03 06:50:53;;;;;;;;;;;;;;;1.52;68.16;103139.75;4996436;28;19921;-67
2022/12/03 06:53:19;;;;;;;;;;;;;;;1.55;67.04;103136.09;4995889;28;20376;-67
2022/12/03 06:55:44;;;;;;;;;;;;;;;1.53;67.07;103132.66;4995730;28;19914;-67
2022/12/03 06:58:09;;;;;;;;;;;;;;;1.54;67.08;103134.34;4995995;28;19914;-67
2022/12/03 07:00:34;;;;;;;;;;;;;;;1.53;65.21;103144.09;4996028;28;19918;-67
2022/12/03 07:03:00;;;;;;;;;;;;;;;1.50;65.90;103138.06;4995824;28;19914;-67
2022/12/03 07:05:25;;;;;;;;;;;;;;;1.45;65.85;103140.94;4995112;28;19928;-67
2022/12/03 07:07:51;;;;;;;;;;;;;;;1.43;65.49;103142.78;4995480;28;20405;-67
2022/12/03 07:10:20;;;;;;;;;;;;;;;1.44;67.99;103141.00;4995753;28;19914;-67
2022/12/03 07:12:45;;;;;;;;;;;;;;;1.43;67.79;103141.91;4995239;28;20259;-67
2022/12/03 07:15:10;;;;;;;;;;;;;;;1.45;67.03;103148.00;4994338;28;19968;-67
2022/12/03 07:17:35;;;;;;;;;;;;;;;1.47;68.68;103140.88;4995503;28;20004;-67
2022/12/03 07:20:01;;;;;;;;;;;;;;;1.49;67.93;103147.81;4995580;28;20278;-67
2022/12/03 07:22:26;;;;;;;;;;;;;;;1.47;67.10;103148.81;4995423;28;19921;-67
2022/12/03 07:24:51;;;;;;;;;;;;;;;1.46;68.48;103140.00;4995435;28;19918;-67
2022/12/03 07:27:17;;;;;;;;;;;;;;;1.47;67.18;103146.16;4995640;28;19937;-67
2022/12/03 07:29:42;;;;;;;;;;;;;;;1.47;67.87;103144.38;4995304;28;20289;-67
2022/12/03 07:32:07;;;;;;;;;;;;;;;1.43;68.03;103136.63;4995738;28;19914;-67
2022/12/03 07:34:32;;;;;;;;;;;;;;;1.41;66.46;103134.06;4995454;28;19996;-67
2022/12/03 07:36:58;;;;;;;;;;;;;;;1.37;65.24;103134.25;4994624;28;19996;-67
2022/12/03 07:39:23;;;;;;;;;;;;;;;1.32;67.22;103140.63;4995283;28;20001;-67
2022/12/03 07:41:48;;;;;;;;;;;;;;;1.37;68.12;103126.31;4994961;28;19914;-67
2022/12/03 07:44:13;;;;;;;;;;;;;;;1.40;67.61;103134.97;4995267;28;19918;-67
2022/12/03 07:46:39;;;;;;;;;;;;;;;1.40;66.17;103124.38;4994969;28;20002;-67
2022/12/03 07:49:04;;;;;;;;;;;;;;;1.43;67.44;103131.31;4994969;28;19917;-67
2022/12/03 07:51:29;;;;;;;;;;;;;;;1.42;67.85;103126.97;4995310;28;19996;-67
2022/12/03 07:53:55;;;;;;;;;;;;;;;1.42;67.85;103126.97;4994684;28;20269;-67
2022/12/03 07:56:20;;;;;;;;;;;;;;;1.43;66.90;103124.25;4994831;28;19920;-67
2022/12/03 07:58:45;;;;;;;;;;;;;;;1.43;67.21;103128.69;4994425;28;20358;-67
2022/12/03 08:01:11;;;;;;;;;;;;;;;1.44;66.92;103133.06;4994665;28;20059;-67
2022/12/03 08:03:37;;;;;;;;;;;;;;;1.44;67.80;103136.56;4995069;28;19961;-67
2022/12/03 08:06:02;;;;;;;;;;;;;;;1.40;66.74;103126.19;4993505;28;19925;-67
2022/12/03 08:08:28;;;;;;;;;;;;;;;1.40;67.41;103127.03;4994475;28;20008;-67
2022/12/03 08:10:53;;;;;;;;;;;;;;;1.37;66.33;103124.50;4994643;28;19917;-67
2022/12/03 08:13:18;;;;;;;;;;;;;;;1.38;67.44;103125.41;4994405;28;20381;-67
2022/12/03 08:15:44;;;;;;;;;;;;;;;1.34;65.83;103114.94;4994477;28;20429;-67
2022/12/03 08:18:14;;;;;;;;;;;;;;;1.32;67.67;103115.94;4993497;28;20021;-67
2022/12/03 08:20:41;;;;;;;;;;;;;;;1.28;66.12;103116.97;4993267;28;20009;-67
2022/12/03 08:23:10;;;;;;;;;;;;;;;1.26;67.20;103118.84;4994429;28;19917;-67
2022/12/03 08:25:35;;;;;;;;;;;;;;;1.24;65.89;103118.03;4994491;28;19917;-67
2022/12/03 08:28:11;;;;;;;;;;;;;;;1.20;67.88;103119.97;4994936;28;19921;-67
2022/12/03 08:30:36;;;;;;;;;;;;;;;1.25;68.21;103111.84;4994190;28;20277;-67
2022/12/03 08:33:10;;;;;;;;;;;;;;;1.25;66.74;103119.78;4994224;28;19913;-67
2022/12/03 08:35:36;;;;;;;;;;;;;;;1.26;66.94;103117.03;4994528;28;20372;-67
2022/12/03 08:38:08;;;;;;;;;;;;;;;1.31;67.59;103112.41;4993799;28;19922;-67
2022/12/03 08:40:39;;;;;;;;;;;;;;;1.32;66.55;103108.84;4994505;28;19968;-67
2022/12/03 08:43:23;;;;;;;;;;;;;;;1.30;66.92;103101.88;4994355;28;19914;-67
2022/12/03 08:45:49;;;;;;;;;;;;;;;1.30;67.10;103105.41;4993798;28;19941;-67
2022/12/03 08:48:17;;;;;;;;;;;;;;;1.26;66.89;103110.91;4994258;28;20021;-67
2022/12/03 08:50:43;;;;;;;;;;;;;;;1.26;67.05;103111.75;4993921;28;20382;-66
2022/12/03 08:53:12;;;;;;;;;;;;;;;1.30;66.13;103109.81;4994210;28;19914;-67
2022/12/03 08:55:38;;;;;;;;;;;;;;;1.31;66.74;103115.06;4995077;28;19968;-67
2022/12/03 08:58:22;;;;;;;;;;;;;;;1.35;67.46;103113.97;4993636;28;20317;-67
2022/12/03 09:00:52;;;;;;;;;;;;;;;1.35;66.92;103107.84;4994108;28;19924;-67
2022/12/03 09:03:17;;;;;;;;;;;;;;;1.41;67.27;103110.22;4993786;28;19914;-67
2022/12/03 09:05:43;;;;;;;;;;;;;;;1.38;67.00;103102.41;4993923;28;19922;-67
2022/12/03 09:08:08;;;;;;;;;;;;;;;1.39;66.72;103112.06;4994119;28;19975;-67
2022/12/03 09:10:33;;;;;;;;;;;;;;;1.38;65.77;103115.66;4976768;28;20412;-67
2022/12/03 09:12:59;;;;;;;;;;;;;;;1.40;67.68;103112.94;4993837;28;19961;-66
2022/12/03 09:15:24;;;;;;;;;;;;;;;1.44;67.49;103112.72;4997286;28;19914;-66
2022/12/03 09:17:49;;;;;;;;;;;;;;;1.44;67.78;103106.56;4996034;28;19921;-66
2022/12/03 09:20:15;;;;;;;;;;;;;;;1.47;67.11;103101.16;4994632;28;20055;-67
2022/12/03 09:22:40;;;;;;;;;;;;;;;1.49;67.65;103101.94;4993934;28;20048;-67
2022/12/03 09:25:05;;;;;;;;;;;;;;;1.49;67.80;103105.44;4994133;28;19922;-67
2022/12/03 09:27:31;;;;;;;;;;;;;;;1.51;68.10;103100.09;4994330;28;19914;-67
2022/12/03 09:29:56;;;;;;;;;;;;;;;1.51;67.73;103103.59;4997746;28;19914;-67
2022/12/03 09:32:21;;;;;;;;;;;;;;;1.50;66.21;103106.28;4997336;28;20375;-67
2022/12/03 09:34:46;;;;;;;;;;;;;;;1.49;66.56;103101.94;4997496;28;19917;-67
2022/12/03 09:37:12;;;;;;;;;;;;;;;1.51;66.62;103105.38;4996812;28;19925;-66
2022/12/03 09:39:37;;;;;;;;;;;;;;;1.51;66.34;103095.63;4997816;28;19956;-67
2022/12/03 09:42:02;;;;;;;;;;;;;;;1.52;65.70;103102.66;4996631;28;20444;-66
2022/12/03 09:44:29;;;;;;;;;;;;;;;1.54;66.39;103102.56;4997210;28;19979;-66
2022/12/03 09:46:58;;;;;;;;;;;;;;;1.56;66.17;103090.16;4997384;28;19914;-66
2022/12/03 09:49:25;;;;;;;;;;;;;;;1.60;65.90;103090.84;4997058;28;19921;-67
2022/12/03 09:51:51;;;;;;;;;;;;;;;1.60;64.75;103093.50;4997300;28;20033;-67
2022/12/03 09:54:23;;;;;;;;;;;;;;;1.63;66.30;103091.56;4996964;28;19921;-67
2022/12/03 09:56:48;;;;;;;;;;;;;;;1.64;64.72;103081.84;4996962;28;19913;-67
2022/12/03 09:59:14;;;;;;;;;;;;;;;1.64;64.77;103088.00;4997347;28;19944;-67
2022/12/03 10:01:39;;;;;;;;;;;;;;;1.63;65.26;103080.97;4996642;28;19967;-67
2022/12/03 10:04:05;;;;;;;;;;;;;;;1.70;66.30;103078.91;4995317;28;19914;-66
2022/12/03 10:06:30;;;;;;;;;;;;;;;1.69;64.95;103077.19;4996310;28;20401;-66
2022/12/03 10:08:55;;;;;;;;;;;;;;;1.69;64.67;103074.53;4996448;28;19914;-66
2022/12/03 10:11:22;;;;;;;;;;;;;;;1.63;64.13;103070.38;4996896;28;19949;-66
2022/12/03 10:13:48;;;;;;;;;;;;;;;1.66;66.03;103072.88;4996570;28;19989;-66
2022/12/03 10:16:15;;;;;;;;;;;;;;;1.71;65.96;103070.91;4996310;28;20390;-66
2022/12/03 10:18:41;;;;;;;;;;;;;;;1.67;64.33;103071.97;4996439;28;19913;-66
2022/12/03 10:21:15;;;;;;;;;;;;;;;1.64;64.04;103076.56;4996030;28;19917;-66
2022/12/03 10:23:40;;;;;;;;;;;;;;;1.63;64.48;103077.47;4996504;28;20005;-66
2022/12/03 10:26:06;;;;;;;;;;;;;;;1.66;64.23;103080.84;4995078;28;20334;-66
2022/12/03 10:28:33;;;;;;;;;;;;;;;1.70;65.54;103089.50;4996086;28;19914;-66
2022/12/03 10:30:59;;;;;;;;;;;;;;;1.72;65.16;103077.88;4996112;28;19917;-66
2022/12/03 10:33:32;;;;;;;;;;;;;;;1.73;64.11;103087.56;4996186;28;19997;-66
2022/12/03 10:36:13;;;;;;;;;;;;;;;1.79;67.52;103072.34;4996218;28;19976;-67
2022/12/03 10:38:38;;;;;;;;;;;;;;;1.84;66.81;103072.94;4995850;28;19921;-67
2022/12/03 10:41:18;;;;;;;;;;;;;;;1.85;66.41;103080.84;4996149;28;20349;-67
2022/12/03 10:43:43;;;;;;;;;;;;;;;1.88;66.11;103078.03;4995592;28;19914;-67
2022/12/03 10:46:11;;;;;;;;;;;;;;;1.91;66.21;103079.69;4995837;28;20322;-67
2022/12/03 10:48:36;;;;;;;;;;;;;;;1.93;66.87;103072.50;4995924;28;19921;-68
2022/12/03 10:51:09;;;;;;;;;;;;;;;1.94;66.40;103075.09;4995887;28;20207;-67
2022/12/03 10:53:35;;;;;;;;;;;;;;;1.94;65.35;103076.91;4995655;28;19914;-67
2022/12/03 10:56:02;;;;;;;;;;;;;;;1.93;66.92;103069.88;4995994;28;19913;-67
2022/12/03 10:58:35;;;;;;;;;;;;;;;1.98;68.77;103070.50;4995788;28;20428;-67
2022/12/03 11:01:02;;;;;;;;;;;;;;;1.96;65.58;103069.72;4995473;28;19914;-66
2022/12/03 11:03:28;;;;;;;;;;;;;;;1.97;65.93;103065.28;4995200;28;20342;-67
2022/12/03 11:05:54;;;;;;;;;;;;;;;1.95;65.97;103062.72;4995471;28;20060;-67
2022/12/03 11:08:31;;;;;;;;;;;;;;;1.92;65.61;103062.88;4995276;28;20358;-67
2022/12/03 11:10:56;;;;;;;;;;;;;;;1.85;65.60;103058.78;4995544;28;19914;-66
2022/12/03 11:13:33;;;;;;;;;;;;;;;1.85;65.81;103067.59;4995086;28;20263;-66
2022/12/03 11:16:03;;;;;;;;;;;;;;;1.42;67.39;102982.19;4994884;28;20381;-66
2022/12/03 11:18:37;;;;;;;;;;;;;;;1.93;68.22;103067.22;4995496;28;20004;-67
2022/12/03 11:21:07;;;;;;;;;;;;;;;1.95;67.95;103065.38;4996181;28;19918;-66
2022/12/03 11:24:00;;;;;;;;;;;;;;;1.92;66.40;103063.72;4995699;28;20361;-66
2022/12/03 11:26:26;;;;;;;;;;;;;;;1.92;65.50;103065.50;4994714;28;19953;-68
2022/12/03 11:28:54;;;;;;;;;;;;;;;1.94;67.34;103066.31;4995203;28;20011;-67
2022/12/03 11:31:34;;;;;;;;;;;;;;;1.95;66.58;103062.72;4994986;28;19957;-67
2022/12/03 11:34:12;;;;;;;;;;;;;;;1.91;65.71;103063.78;4995301;28;20004;-67
2022/12/03 11:36:57;;;;;;;;;;;;;;;1.94;66.68;103056.56;4994938;28;19965;-66
2022/12/03 11:39:42;;;;;;;;;;;;;;;1.93;65.97;103051.31;4995204;28;19980;-67
2022/12/03 11:42:26;;;;;;;;;;;;;;;1.84;65.00;103049.97;4995763;28;20278;-67
2022/12/03 11:45:03;;;;;;;;;;;;;;;1.88;66.06;103046.25;4995546;28;19929;-67
2022/12/03 11:47:34;;;;;;;;;;;;;;;1.86;64.90;103036.66;4997883;28;19925;-67
2022/12/03 11:50:00;;;;;;;;;;;;;;;1.90;66.01;103038.25;4999473;28;20025;-66
2022/12/03 11:52:30;;;;;;;;;;;;;;;1.88;66.36;103038.31;4998998;28;20009;-67
2022/12/03 11:54:58;;;;;;;;;;;;;;;1.85;66.85;103042.88;4997238;28;19953;-66
2022/12/03 11:57:25;;;;;;;;;;;;;;;1.80;64.76;103039.59;4994672;28;19918;-67
2022/12/03 11:59:58;;;;;;;;;;;;;;;1.78;65.34;103030.84;4994847;28;20362;-67
2022/12/03 12:02:24;;;;;;;;;;;;;;;1.75;65.77;103034.53;4994339;28;19939;-66
2022/12/03 12:04:49;;;;;;;;;;;;;;;1.79;68.20;103032.59;4994231;28;20441;-66
2022/12/03 12:07:33;;;;;;;;;;;;;;;1.77;66.57;103034.47;4994631;28;19914;-66
2022/12/03 12:09:58;;;;;;;;;;;;;;;1.77;66.45;103029.16;4994526;28;19937;-67
2022/12/03 12:12:37;;;;;;;;;;;;;;;1.79;66.39;103032.59;4993075;28;20366;-66
2022/12/03 12:15:21;;;;;;;;;;;;;;;1.83;68.26;103032.34;4994673;28;19918;-66
2022/12/03 12:17:46;;;;;;;;;;;;;;;1.84;66.01;103035.84;4994871;28;20048;-66
2022/12/03 12:20:20;;;;;;;;;;;;;;;1.79;65.29;103035.25;4994688;28;20384;-66
2022/12/03 12:22:45;;;;;;;;;;;;;;;1.77;66.01;103034.47;4993069;28;19913;-66
2022/12/03 12:25:33;;;;;;;;;;;;;;;1.78;67.26;103036.16;4994443;28;20386;-66
2022/12/03 12:27:59;;;;;;;;;;;;;;;1.78;66.63;103031.72;4994850;28;20354;-66
2022/12/03 12:30:24;;;;;;;;;;;;;;;1.81;67.47;103028.06;4994359;28;19920;-66
2022/12/03 12:32:51;;;;;;;;;;;;;;;1.74;66.65;103024.84;4994077;28;19913;-66
2022/12/03 12:35:22;;;;;;;;;;;;;;;1.71;66.60;103027.66;4993539;28;19914;-66
2022/12/03 12:37:48;;;;;;;;;;;;;;;1.70;66.23;103020.63;4993835;28;20422;-66
2022/12/03 12:40:16;;;;;;;;;;;;;;;1.67;65.02;103023.41;4994136;28;19913;-66
2022/12/03 12:42:47;;;;;;;;;;;;;;;1.68;66.05;103027.78;4994162;28;19921;-66
2022/12/03 12:45:14;;;;;;;;;;;;;;;1.61;67.53;103027.22;4992908;28;19918;-67
2022/12/03 12:47:48;;;;;;;;;;;;;;;1.60;65.74;103024.63;4995012;28;19952;-66
2022/12/03 12:50:14;;;;;;;;;;;;;;;1.58;66.26;103019.44;4994312;28;19925;-66
2022/12/03 12:52:47;;;;;;;;;;;;;;;1.62;67.99;103014.84;4993839;28;20443;-66
2022/12/03 12:55:13;;;;;;;;;;;;;;;1.68;68.67;103009.25;4993971;28;19972;-67
2022/12/03 12:57:38;;;;;;;;;;;;;;;1.70;68.54;103007.38;4994100;28;19914;-67
2022/12/03 13:00:04;;;;;;;;;;;;;;;1.69;68.09;103006.53;4994324;28;19925;-67
2022/12/03 13:02:29;;;;;;;;;;;;;;;1.68;68.47;103003.94;4994343;28;19914;-67
2022/12/03 13:04:55;;;;;;;;;;;;;;;1.67;68.02;103007.53;4998045;28;20298;-67
2022/12/03 13:07:21;;;;;;;;;;;;;;;1.65;67.50;103001.44;4997895;28;19991;-67
2022/12/03 13:09:48;;;;;;;;;;;;;;;1.62;67.76;103005.09;4997737;28;19920;-67
2022/12/03 13:12:18;;;;;;;;;;;;;;;1.63;67.57;103011.25;4997634;28;19968;-67
2022/12/03 13:14:44;;;;;;;;;;;;;;;1.51;66.18;102996.81;4997582;28;20267;-66
2022/12/03 13:17:18;;;;;;;;;;;;;;;1.50;67.78;102998.56;4997716;28;19921;-66
2022/12/03 13:19:43;;;;;;;;;;;;;;;1.46;65.81;103001.44;4997651;28;19917;-67
2022/12/03 13:22:20;;;;;;;;;;;;;;;1.42;66.83;102998.09;4996871;28;19914;-67
2022/12/03 13:24:52;;;;;;;;;;;;;;;1.46;68.53;102991.72;4997460;28;19926;-66
2022/12/03 13:27:18;;;;;;;;;;;;;;;1.47;68.98;102995.25;4997331;28;19914;-66
2022/12/03 13:29:49;;;;;;;;;;;;;;;1.42;66.21;103000.72;4997624;28;20005;-67
2022/12/03 13:32:16;;;;;;;;;;;;;;;1.38;68.35;102995.66;4997547;28;19914;-66
2022/12/03 13:34:43;;;;;;;;;;;;;;;1.32;67.44;102995.00;4997155;28;19921;-66
2022/12/03 13:37:12;;;;;;;;;;;;;;;1.30;65.85;102991.59;4997185;28;19921;-66
2022/12/03 13:39:42;;;;;;;;;;;;;;;1.26;68.00;102995.28;4996807;28;19929;-66